sensor_id;sensor_type;location;lat;lon;timestamp;P1;durP1;ratioP1;P2;durP2;ratioP2
40807;SDS011;26523;52.504;13.498;2023-04-24T00:02:22;6.25;;;3.33;;
40807;SDS011;26523;52.504;13.498;2023-04-24T00:04:49;4.90;;;2.55;;
40807;SDS011;26523;52.504;13.498;2023-04-24T00:07:15;6.50;;;3.30;;
40807;SDS011;26523;52.504;13.498;2023-04-24T00:09:45;12.27;;;3.42;;
40807;SDS011;26523;52.504;13.498;2023-04-24T00:12:11;5.43;;;3.08;;
40807;SDS011;26523;52.504;13.498;2023-04-24T00:14:36;4.80;;;2.58;;
40807;SDS011;26523;52.504;13.498;2023-04-24T00:17:02;9.02;;;3.38;;
40807;SDS011;26523;52.504;13.498;2023-04-24T00:19:28;13.18;;;3.90;;
40807;SDS011;26523;52.504;13.498;2023-04-24T00:21:54;5.93;;;3.25;;
40807;SDS011;26523;52.504;13.498;2023-04-24T00:24:20;5.70;;;3.35;;
40807;SDS011;26523;52.504;13.498;2023-04-24T00:26:46;6.88;;;3.95;;
40807;SDS011;26523;52.504;13.498;2023-04-24T00:29:12;5.13;;;2.67;;
40807;SDS011;26523;52.504;13.498;2023-04-24T00:31:37;7.30;;;3.33;;
40807;SDS011;26523;52.504;13.498;2023-04-24T00:34:03;7.93;;;2.67;;
40807;SDS011;26523;52.504;13.498;2023-04-24T00:36:30;5.35;;;2.88;;
40807;SDS011;26523;52.504;13.498;2023-04-24T00:38:56;6.75;;;3.30;;
40807;SDS011;26523;52.504;13.498;2023-04-24T00:41:22;6.43;;;3.45;;
40807;SDS011;26523;52.504;13.498;2023-04-24T00:43:48;7.25;;;3.25;;
40807;SDS011;26523;52.504;13.498;2023-04-24T00:46:14;7.30;;;3.85;;
40807;SDS011;26523;52.504;13.498;2023-04-24T00:48:41;8.73;;;3.60;;
40807;SDS011;26523;52.504;13.498;2023-04-24T00:51:06;6.50;;;3.08;;
40807;SDS011;26523;52.504;13.498;2023-04-24T00:53:32;5.55;;;3.25;;
40807;SDS011;26523;52.504;13.498;2023-04-24T00:55:58;6.18;;;3.17;;
40807;SDS011;26523;52.504;13.498;2023-04-24T00:58:24;7.85;;;2.95;;
40807;SDS011;26523;52.504;13.498;2023-04-24T01:00:51;5.90;;;2.90;;
40807;SDS011;26523;52.504;13.498;2023-04-24T01:03:19;6.10;;;3.35;;
40807;SDS011;26523;52.504;13.498;2023-04-24T01:05:51;7.80;;;3.05;;
40807;SDS011;26523;52.504;13.498;2023-04-24T01:08:17;5.88;;;3.00;;
40807;SDS011;26523;52.504;13.498;2023-04-24T01:10:45;5.68;;;3.10;;
40807;SDS011;26523;52.504;13.498;2023-04-24T01:13:11;10.05;;;3.75;;
40807;SDS011;26523;52.504;13.498;2023-04-24T01:15:38;6.22;;;3.30;;
40807;SDS011;26523;52.504;13.498;2023-04-24T01:18:03;6.70;;;3.40;;
40807;SDS011;26523;52.504;13.498;2023-04-24T01:20:29;6.25;;;3.05;;
40807;SDS011;26523;52.504;13.498;2023-04-24T01:22:56;6.75;;;3.08;;
40807;SDS011;26523;52.504;13.498;2023-04-24T01:25:22;6.90;;;3.10;;
40807;SDS011;26523;52.504;13.498;2023-04-24T01:27:50;4.43;;;2.75;;
40807;SDS011;26523;52.504;13.498;2023-04-24T01:30:17;7.28;;;3.50;;
40807;SDS011;26523;52.504;13.498;2023-04-24T01:32:43;9.73;;;3.55;;
40807;SDS011;26523;52.504;13.498;2023-04-24T01:38:46;5.60;;;3.17;;
40807;SDS011;26523;52.504;13.498;2023-04-24T01:41:11;4.82;;;2.90;;
40807;SDS011;26523;52.504;13.498;2023-04-24T01:43:37;5.40;;;3.25;;
40807;SDS011;26523;52.504;13.498;2023-04-24T01:46:03;5.95;;;3.40;;
40807;SDS011;26523;52.504;13.498;2023-04-24T01:48:28;5.55;;;3.15;;
40807;SDS011;26523;52.504;13.498;2023-04-24T01:50:56;8.00;;;3.15;;
40807;SDS011;26523;52.504;13.498;2023-04-24T01:53:22;6.53;;;3.42;;
40807;SDS011;26523;52.504;13.498;2023-04-24T01:55:47;5.55;;;3.30;;
40807;SDS011;26523;52.504;13.498;2023-04-24T01:58:13;8.45;;;3.78;;
40807;SDS011;26523;52.504;13.498;2023-04-24T02:00:39;5.95;;;2.47;;
40807;SDS011;26523;52.504;13.498;2023-04-24T02:03:05;11.40;;;3.88;;
40807;SDS011;26523;52.504;13.498;2023-04-24T02:05:30;6.95;;;3.30;;
40807;SDS011;26523;52.504;13.498;2023-04-24T02:07:56;6.13;;;3.47;;
40807;SDS011;26523;52.504;13.498;2023-04-24T02:10:22;6.70;;;3.33;;
40807;SDS011;26523;52.504;13.498;2023-04-24T02:12:47;7.90;;;3.80;;
40807;SDS011;26523;52.504;13.498;2023-04-24T02:15:13;5.72;;;3.10;;
40807;SDS011;26523;52.504;13.498;2023-04-24T02:17:39;6.85;;;3.20;;
40807;SDS011;26523;52.504;13.498;2023-04-24T02:20:06;7.07;;;3.55;;
40807;SDS011;26523;52.504;13.498;2023-04-24T02:22:32;9.35;;;3.33;;
40807;SDS011;26523;52.504;13.498;2023-04-24T02:24:57;6.32;;;3.28;;
40807;SDS011;26523;52.504;13.498;2023-04-24T02:27:23;5.75;;;3.47;;
40807;SDS011;26523;52.504;13.498;2023-04-24T02:29:49;6.55;;;3.63;;
40807;SDS011;26523;52.504;13.498;2023-04-24T02:32:15;7.97;;;4.20;;
40807;SDS011;26523;52.504;13.498;2023-04-24T02:34:40;7.78;;;3.45;;
40807;SDS011;26523;52.504;13.498;2023-04-24T02:37:06;6.13;;;3.15;;
40807;SDS011;26523;52.504;13.498;2023-04-24T02:39:32;6.82;;;3.97;;
40807;SDS011;26523;52.504;13.498;2023-04-24T02:41:57;5.28;;;3.42;;
40807;SDS011;26523;52.504;13.498;2023-04-24T02:44:23;7.07;;;3.72;;
40807;SDS011;26523;52.504;13.498;2023-04-24T02:46:48;6.72;;;3.53;;
40807;SDS011;26523;52.504;13.498;2023-04-24T02:49:14;9.05;;;4.00;;
40807;SDS011;26523;52.504;13.498;2023-04-24T02:51:40;7.05;;;4.13;;
40807;SDS011;26523;52.504;13.498;2023-04-24T02:54:06;8.75;;;3.92;;
40807;SDS011;26523;52.504;13.498;2023-04-24T02:56:36;6.57;;;3.40;;
40807;SDS011;26523;52.504;13.498;2023-04-24T02:59:01;6.25;;;4.18;;
40807;SDS011;26523;52.504;13.498;2023-04-24T03:01:27;8.75;;;3.75;;
40807;SDS011;26523;52.504;13.498;2023-04-24T03:03:53;7.65;;;3.80;;
40807;SDS011;26523;52.504;13.498;2023-04-24T03:06:19;7.07;;;3.78;;
40807;SDS011;26523;52.504;13.498;2023-04-24T03:08:45;7.57;;;4.25;;
40807;SDS011;26523;52.504;13.498;2023-04-24T03:11:11;6.80;;;3.97;;
40807;SDS011;26523;52.504;13.498;2023-04-24T03:13:37;6.43;;;3.30;;
40807;SDS011;26523;52.504;13.498;2023-04-24T03:16:02;7.38;;;4.07;;
40807;SDS011;26523;52.504;13.498;2023-04-24T03:18:28;7.32;;;4.18;;
40807;SDS011;26523;52.504;13.498;2023-04-24T03:20:54;8.75;;;4.40;;
40807;SDS011;26523;52.504;13.498;2023-04-24T03:23:20;6.80;;;3.90;;
40807;SDS011;26523;52.504;13.498;2023-04-24T03:25:45;8.38;;;4.45;;
40807;SDS011;26523;52.504;13.498;2023-04-24T03:28:13;8.50;;;4.10;;
40807;SDS011;26523;52.504;13.498;2023-04-24T03:30:38;8.10;;;4.07;;
40807;SDS011;26523;52.504;13.498;2023-04-24T03:33:04;6.47;;;4.25;;
40807;SDS011;26523;52.504;13.498;2023-04-24T03:35:30;10.20;;;4.05;;
40807;SDS011;26523;52.504;13.498;2023-04-24T03:37:56;11.27;;;4.18;;
40807;SDS011;26523;52.504;13.498;2023-04-24T03:40:21;7.50;;;3.92;;
40807;SDS011;26523;52.504;13.498;2023-04-24T03:42:47;7.25;;;3.60;;
40807;SDS011;26523;52.504;13.498;2023-04-24T03:45:13;8.13;;;3.83;;
40807;SDS011;26523;52.504;13.498;2023-04-24T03:47:38;7.35;;;3.78;;
40807;SDS011;26523;52.504;13.498;2023-04-24T03:50:04;6.30;;;3.63;;
40807;SDS011;26523;52.504;13.498;2023-04-24T03:52:30;5.20;;;3.40;;
40807;SDS011;26523;52.504;13.498;2023-04-24T03:54:56;6.13;;;3.80;;
40807;SDS011;26523;52.504;13.498;2023-04-24T03:57:21;9.38;;;4.35;;
40807;SDS011;26523;52.504;13.498;2023-04-24T03:59:47;7.03;;;3.95;;
40807;SDS011;26523;52.504;13.498;2023-04-24T04:02:13;6.53;;;3.80;;
40807;SDS011;26523;52.504;13.498;2023-04-24T04:04:38;6.03;;;3.53;;
40807;SDS011;26523;52.504;13.498;2023-04-24T04:07:04;6.57;;;3.50;;
40807;SDS011;26523;52.504;13.498;2023-04-24T04:09:30;6.22;;;3.47;;
40807;SDS011;26523;52.504;13.498;2023-04-24T04:11:56;7.22;;;3.20;;
40807;SDS011;26523;52.504;13.498;2023-04-24T04:14:22;6.57;;;3.75;;
40807;SDS011;26523;52.504;13.498;2023-04-24T04:16:48;6.50;;;3.08;;
40807;SDS011;26523;52.504;13.498;2023-04-24T04:19:14;6.78;;;3.60;;
40807;SDS011;26523;52.504;13.498;2023-04-24T04:21:39;8.00;;;4.13;;
40807;SDS011;26523;52.504;13.498;2023-04-24T04:24:05;6.00;;;3.75;;
40807;SDS011;26523;52.504;13.498;2023-04-24T04:26:32;7.20;;;3.50;;
40807;SDS011;26523;52.504;13.498;2023-04-24T04:28:58;7.45;;;3.72;;
40807;SDS011;26523;52.504;13.498;2023-04-24T04:31:25;9.20;;;3.38;;
40807;SDS011;26523;52.504;13.498;2023-04-24T04:33:51;6.95;;;4.05;;
40807;SDS011;26523;52.504;13.498;2023-04-24T04:36:16;7.22;;;3.90;;
40807;SDS011;26523;52.504;13.498;2023-04-24T04:38:42;6.82;;;3.65;;
40807;SDS011;26523;52.504;13.498;2023-04-24T04:41:09;7.28;;;3.63;;
40807;SDS011;26523;52.504;13.498;2023-04-24T04:43:35;8.80;;;3.60;;
40807;SDS011;26523;52.504;13.498;2023-04-24T04:46:01;6.88;;;3.78;;
40807;SDS011;26523;52.504;13.498;2023-04-24T04:48:28;6.03;;;3.70;;
40807;SDS011;26523;52.504;13.498;2023-04-24T04:50:56;7.30;;;3.65;;
40807;SDS011;26523;52.504;13.498;2023-04-24T04:53:22;6.00;;;3.40;;
40807;SDS011;26523;52.504;13.498;2023-04-24T04:55:48;8.50;;;4.05;;
40807;SDS011;26523;52.504;13.498;2023-04-24T04:58:13;6.38;;;2.90;;
40807;SDS011;26523;52.504;13.498;2023-04-24T05:00:39;7.30;;;3.28;;
40807;SDS011;26523;52.504;13.498;2023-04-24T05:03:06;7.97;;;3.72;;
40807;SDS011;26523;52.504;13.498;2023-04-24T05:05:32;13.07;;;3.70;;
40807;SDS011;26523;52.504;13.498;2023-04-24T05:07:57;5.65;;;3.00;;
40807;SDS011;26523;52.504;13.498;2023-04-24T05:10:23;7.43;;;4.25;;
40807;SDS011;26523;52.504;13.498;2023-04-24T05:12:49;5.80;;;3.92;;
40807;SDS011;26523;52.504;13.498;2023-04-24T05:15:15;6.00;;;3.35;;
40807;SDS011;26523;52.504;13.498;2023-04-24T05:17:40;5.35;;;3.22;;
40807;SDS011;26523;52.504;13.498;2023-04-24T05:20:06;6.35;;;2.88;;
40807;SDS011;26523;52.504;13.498;2023-04-24T05:22:32;6.93;;;3.20;;
40807;SDS011;26523;52.504;13.498;2023-04-24T05:24:58;4.13;;;2.67;;
40807;SDS011;26523;52.504;13.498;2023-04-24T05:27:24;6.47;;;3.28;;
40807;SDS011;26523;52.504;13.498;2023-04-24T05:29:49;5.72;;;2.75;;
40807;SDS011;26523;52.504;13.498;2023-04-24T05:32:16;3.80;;;2.40;;
40807;SDS011;26523;52.504;13.498;2023-04-24T05:34:41;4.38;;;2.55;;
40807;SDS011;26523;52.504;13.498;2023-04-24T05:37:07;4.70;;;2.40;;
40807;SDS011;26523;52.504;13.498;2023-04-24T05:39:34;4.95;;;2.63;;
40807;SDS011;26523;52.504;13.498;2023-04-24T05:42:01;3.35;;;2.00;;
40807;SDS011;26523;52.504;13.498;2023-04-24T05:44:28;4.47;;;2.53;;
40807;SDS011;26523;52.504;13.498;2023-04-24T05:46:53;7.47;;;2.55;;
40807;SDS011;26523;52.504;13.498;2023-04-24T05:49:20;8.30;;;2.50;;
40807;SDS011;26523;52.504;13.498;2023-04-24T05:51:46;5.75;;;2.20;;
40807;SDS011;26523;52.504;13.498;2023-04-24T05:54:12;4.28;;;2.13;;
40807;SDS011;26523;52.504;13.498;2023-04-24T05:56:37;6.80;;;1.88;;
40807;SDS011;26523;52.504;13.498;2023-04-24T05:59:04;3.47;;;1.80;;
40807;SDS011;26523;52.504;13.498;2023-04-24T06:01:29;3.47;;;1.83;;
40807;SDS011;26523;52.504;13.498;2023-04-24T06:03:56;6.47;;;2.72;;
40807;SDS011;26523;52.504;13.498;2023-04-24T06:06:23;5.80;;;1.92;;
40807;SDS011;26523;52.504;13.498;2023-04-24T06:08:49;9.10;;;1.83;;
40807;SDS011;26523;52.504;13.498;2023-04-24T06:11:14;4.40;;;1.98;;
40807;SDS011;26523;52.504;13.498;2023-04-24T06:13:40;3.70;;;1.80;;
40807;SDS011;26523;52.504;13.498;2023-04-24T06:16:06;4.93;;;2.10;;
40807;SDS011;26523;52.504;13.498;2023-04-24T06:18:32;5.50;;;1.80;;
40807;SDS011;26523;52.504;13.498;2023-04-24T06:20:58;6.05;;;1.65;;
40807;SDS011;26523;52.504;13.498;2023-04-24T06:23:23;2.90;;;1.27;;
40807;SDS011;26523;52.504;13.498;2023-04-24T06:25:49;3.03;;;1.13;;
40807;SDS011;26523;52.504;13.498;2023-04-24T06:28:15;4.20;;;1.38;;
40807;SDS011;26523;52.504;13.498;2023-04-24T06:30:40;2.85;;;1.05;;
40807;SDS011;26523;52.504;13.498;2023-04-24T06:33:06;2.97;;;1.30;;
40807;SDS011;26523;52.504;13.498;2023-04-24T06:35:32;2.63;;;0.90;;
40807;SDS011;26523;52.504;13.498;2023-04-24T06:37:58;2.38;;;0.90;;
40807;SDS011;26523;52.504;13.498;2023-04-24T06:40:23;1.83;;;0.90;;
40807;SDS011;26523;52.504;13.498;2023-04-24T06:42:49;2.08;;;0.90;;
40807;SDS011;26523;52.504;13.498;2023-04-24T06:45:15;3.88;;;1.30;;
40807;SDS011;26523;52.504;13.498;2023-04-24T06:47:40;2.05;;;0.90;;
40807;SDS011;26523;52.504;13.498;2023-04-24T06:50:07;4.93;;;1.13;;
40807;SDS011;26523;52.504;13.498;2023-04-24T06:52:33;3.25;;;1.27;;
40807;SDS011;26523;52.504;13.498;2023-04-24T06:55:02;1.58;;;0.75;;
40807;SDS011;26523;52.504;13.498;2023-04-24T06:57:28;3.40;;;0.80;;
40807;SDS011;26523;52.504;13.498;2023-04-24T06:59:54;1.45;;;0.90;;
40807;SDS011;26523;52.504;13.498;2023-04-24T07:02:20;3.15;;;1.00;;
40807;SDS011;26523;52.504;13.498;2023-04-24T07:04:46;2.85;;;0.60;;
40807;SDS011;26523;52.504;13.498;2023-04-24T07:07:12;1.55;;;0.60;;
40807;SDS011;26523;52.504;13.498;2023-04-24T07:09:41;4.93;;;0.82;;
40807;SDS011;26523;52.504;13.498;2023-04-24T07:12:08;0.82;;;0.60;;
40807;SDS011;26523;52.504;13.498;2023-04-24T07:14:35;1.83;;;0.73;;
40807;SDS011;26523;52.504;13.498;2023-04-24T07:17:02;2.35;;;0.60;;
40807;SDS011;26523;52.504;13.498;2023-04-24T07:19:28;1.10;;;0.73;;
40807;SDS011;26523;52.504;13.498;2023-04-24T07:21:54;2.95;;;0.80;;
40807;SDS011;26523;52.504;13.498;2023-04-24T07:24:20;3.08;;;0.88;;
40807;SDS011;26523;52.504;13.498;2023-04-24T07:26:46;2.58;;;1.00;;
40807;SDS011;26523;52.504;13.498;2023-04-24T07:29:12;2.03;;;0.98;;
40807;SDS011;26523;52.504;13.498;2023-04-24T07:31:38;1.52;;;0.90;;
40807;SDS011;26523;52.504;13.498;2023-04-24T07:34:06;1.58;;;0.55;;
40807;SDS011;26523;52.504;13.498;2023-04-24T07:36:31;3.67;;;0.85;;
40807;SDS011;26523;52.504;13.498;2023-04-24T07:38:57;1.67;;;0.82;;
40807;SDS011;26523;52.504;13.498;2023-04-24T07:41:23;2.70;;;0.43;;
40807;SDS011;26523;52.504;13.498;2023-04-24T07:43:49;1.05;;;0.55;;
40807;SDS011;26523;52.504;13.498;2023-04-24T07:46:15;2.03;;;0.73;;
40807;SDS011;26523;52.504;13.498;2023-04-24T07:48:41;0.70;;;0.40;;
40807;SDS011;26523;52.504;13.498;2023-04-24T07:51:07;1.40;;;0.88;;
40807;SDS011;26523;52.504;13.498;2023-04-24T07:53:35;1.55;;;0.57;;
40807;SDS011;26523;52.504;13.498;2023-04-24T07:56:00;1.95;;;0.75;;
40807;SDS011;26523;52.504;13.498;2023-04-24T07:58:26;5.47;;;0.70;;
40807;SDS011;26523;52.504;13.498;2023-04-24T08:00:52;1.20;;;0.70;;
40807;SDS011;26523;52.504;13.498;2023-04-24T08:03:17;1.38;;;0.47;;
40807;SDS011;26523;52.504;13.498;2023-04-24T08:05:44;1.05;;;0.50;;
40807;SDS011;26523;52.504;13.498;2023-04-24T08:08:10;1.63;;;0.40;;
40807;SDS011;26523;52.504;13.498;2023-04-24T08:10:36;1.88;;;0.50;;
40807;SDS011;26523;52.504;13.498;2023-04-24T08:13:02;0.85;;;0.50;;
40807;SDS011;26523;52.504;13.498;2023-04-24T08:15:27;1.83;;;0.77;;
40807;SDS011;26523;52.504;13.498;2023-04-24T08:17:53;2.50;;;0.73;;
40807;SDS011;26523;52.504;13.498;2023-04-24T08:20:19;1.17;;;0.68;;
40807;SDS011;26523;52.504;13.498;2023-04-24T08:22:45;3.25;;;0.60;;
40807;SDS011;26523;52.504;13.498;2023-04-24T08:25:12;0.30;;;0.30;;
40807;SDS011;26523;52.504;13.498;2023-04-24T08:27:38;1.38;;;0.50;;
40807;SDS011;26523;52.504;13.498;2023-04-24T08:30:04;0.68;;;0.40;;
40807;SDS011;26523;52.504;13.498;2023-04-24T08:32:30;1.38;;;0.70;;
40807;SDS011;26523;52.504;13.498;2023-04-24T08:34:56;1.80;;;0.52;;
40807;SDS011;26523;52.504;13.498;2023-04-24T08:37:22;0.82;;;0.57;;
40807;SDS011;26523;52.504;13.498;2023-04-24T08:39:49;0.50;;;0.50;;
40807;SDS011;26523;52.504;13.498;2023-04-24T08:42:15;1.70;;;0.90;;
40807;SDS011;26523;52.504;13.498;2023-04-24T08:44:42;1.23;;;0.70;;
40807;SDS011;26523;52.504;13.498;2023-04-24T08:47:09;1.17;;;0.52;;
40807;SDS011;26523;52.504;13.498;2023-04-24T08:49:36;1.77;;;0.47;;
40807;SDS011;26523;52.504;13.498;2023-04-24T08:52:03;3.65;;;0.70;;
40807;SDS011;26523;52.504;13.498;2023-04-24T08:54:29;2.50;;;1.25;;
40807;SDS011;26523;52.504;13.498;2023-04-24T08:57:00;1.90;;;0.68;;
40807;SDS011;26523;52.504;13.498;2023-04-24T08:59:28;0.70;;;0.50;;
40807;SDS011;26523;52.504;13.498;2023-04-24T09:02:20;0.95;;;0.50;;
40807;SDS011;26523;52.504;13.498;2023-04-24T09:04:47;1.08;;;0.30;;
40807;SDS011;26523;52.504;13.498;2023-04-24T09:07:14;5.30;;;0.60;;
40807;SDS011;26523;52.504;13.498;2023-04-24T09:09:41;2.88;;;0.52;;
40807;SDS011;26523;52.504;13.498;2023-04-24T09:12:07;1.20;;;0.45;;
40807;SDS011;26523;52.504;13.498;2023-04-24T09:14:35;1.10;;;0.50;;
40807;SDS011;26523;52.504;13.498;2023-04-24T09:17:04;0.93;;;0.45;;
40807;SDS011;26523;52.504;13.498;2023-04-24T09:19:31;1.58;;;0.60;;
40807;SDS011;26523;52.504;13.498;2023-04-24T09:21:57;0.38;;;0.20;;
40807;SDS011;26523;52.504;13.498;2023-04-24T09:24:22;1.35;;;0.35;;
40807;SDS011;26523;52.504;13.498;2023-04-24T09:26:49;9.48;;;0.90;;
40807;SDS011;26523;52.504;13.498;2023-04-24T09:29:26;2.53;;;0.63;;
40807;SDS011;26523;52.504;13.498;2023-04-24T09:31:52;1.20;;;0.50;;
40807;SDS011;26523;52.504;13.498;2023-04-24T09:34:22;1.05;;;0.38;;
40807;SDS011;26523;52.504;13.498;2023-04-24T09:36:49;0.85;;;0.60;;
40807;SDS011;26523;52.504;13.498;2023-04-24T09:39:16;2.05;;;0.52;;
40807;SDS011;26523;52.504;13.498;2023-04-24T09:41:55;1.20;;;0.40;;
40807;SDS011;26523;52.504;13.498;2023-04-24T09:44:26;1.08;;;0.50;;
40807;SDS011;26523;52.504;13.498;2023-04-24T09:46:57;2.35;;;1.00;;
40807;SDS011;26523;52.504;13.498;2023-04-24T09:49:24;0.80;;;0.40;;
40807;SDS011;26523;52.504;13.498;2023-04-24T09:51:51;2.03;;;0.52;;
40807;SDS011;26523;52.504;13.498;2023-04-24T09:54:18;2.85;;;0.75;;
40807;SDS011;26523;52.504;13.498;2023-04-24T09:56:47;2.92;;;1.15;;
40807;SDS011;26523;52.504;13.498;2023-04-24T09:59:14;1.40;;;0.40;;
40807;SDS011;26523;52.504;13.498;2023-04-24T10:01:41;2.15;;;0.70;;
40807;SDS011;26523;52.504;13.498;2023-04-24T10:04:28;1.25;;;0.60;;
40807;SDS011;26523;52.504;13.498;2023-04-24T10:06:54;1.63;;;0.85;;
40807;SDS011;26523;52.504;13.498;2023-04-24T10:09:22;1.45;;;0.60;;
40807;SDS011;26523;52.504;13.498;2023-04-24T10:11:51;3.83;;;0.63;;
40807;SDS011;26523;52.504;13.498;2023-04-24T10:14:20;0.77;;;0.47;;
40807;SDS011;26523;52.504;13.498;2023-04-24T10:16:47;3.38;;;0.82;;
40807;SDS011;26523;52.504;13.498;2023-04-24T10:19:13;2.97;;;0.82;;
40807;SDS011;26523;52.504;13.498;2023-04-24T10:21:40;1.02;;;0.47;;
40807;SDS011;26523;52.504;13.498;2023-04-24T10:24:08;0.93;;;0.40;;
40807;SDS011;26523;52.504;13.498;2023-04-24T10:26:35;2.97;;;0.50;;
40807;SDS011;26523;52.504;13.498;2023-04-24T10:29:02;1.15;;;0.50;;
40807;SDS011;26523;52.504;13.498;2023-04-24T10:31:31;0.77;;;0.57;;
40807;SDS011;26523;52.504;13.498;2023-04-24T10:33:58;1.30;;;0.50;;
40807;SDS011;26523;52.504;13.498;2023-04-24T10:36:25;2.05;;;0.80;;
40807;SDS011;26523;52.504;13.498;2023-04-24T10:38:53;0.93;;;0.45;;
40807;SDS011;26523;52.504;13.498;2023-04-24T10:41:21;2.30;;;0.63;;
40807;SDS011;26523;52.504;13.498;2023-04-24T10:44:07;0.30;;;0.30;;
40807;SDS011;26523;52.504;13.498;2023-04-24T10:46:33;1.80;;;0.30;;
40807;SDS011;26523;52.504;13.498;2023-04-24T10:48:59;1.88;;;0.68;;
40807;SDS011;26523;52.504;13.498;2023-04-24T10:51:50;5.28;;;0.77;;
40807;SDS011;26523;52.504;13.498;2023-04-24T10:54:28;3.97;;;0.63;;
40807;SDS011;26523;52.504;13.498;2023-04-24T10:59:50;1.77;;;0.80;;
40807;SDS011;26523;52.504;13.498;2023-04-24T11:02:54;1.08;;;0.50;;
40807;SDS011;26523;52.504;13.498;2023-04-24T11:05:22;1.80;;;0.70;;
40807;SDS011;26523;52.504;13.498;2023-04-24T11:08:26;0.95;;;0.65;;
40807;SDS011;26523;52.504;13.498;2023-04-24T11:11:06;1.13;;;0.60;;
40807;SDS011;26523;52.504;13.498;2023-04-24T11:21:36;1.70;;;0.65;;
40807;SDS011;26523;52.504;13.498;2023-04-24T11:24:24;1.52;;;0.50;;
40807;SDS011;26523;52.504;13.498;2023-04-24T11:35:08;1.00;;;0.22;;
40807;SDS011;26523;52.504;13.498;2023-04-24T11:37:42;0.52;;;0.38;;
40807;SDS011;26523;52.504;13.498;2023-04-24T11:40:10;5.82;;;0.85;;
40807;SDS011;26523;52.504;13.498;2023-04-24T11:42:38;2.72;;;0.75;;
40807;SDS011;26523;52.504;13.498;2023-04-24T11:45:15;3.28;;;0.90;;
40807;SDS011;26523;52.504;13.498;2023-04-24T11:47:43;3.03;;;0.77;;
40807;SDS011;26523;52.504;13.498;2023-04-24T11:50:11;7.65;;;1.05;;
40807;SDS011;26523;52.504;13.498;2023-04-24T11:52:42;1.27;;;0.60;;
40807;SDS011;26523;52.504;13.498;2023-04-24T11:55:22;1.65;;;0.70;;
40807;SDS011;26523;52.504;13.498;2023-04-24T11:57:53;2.42;;;1.00;;
40807;SDS011;26523;52.504;13.498;2023-04-24T12:00:24;0.90;;;0.70;;
40807;SDS011;26523;52.504;13.498;2023-04-24T12:03:02;1.58;;;0.75;;
40807;SDS011;26523;52.504;13.498;2023-04-24T12:05:32;1.10;;;0.70;;
40807;SDS011;26523;52.504;13.498;2023-04-24T12:07:58;2.08;;;0.80;;
40807;SDS011;26523;52.504;13.498;2023-04-24T12:10:25;6.20;;;1.35;;
40807;SDS011;26523;52.504;13.498;2023-04-24T12:12:52;2.90;;;0.82;;
40807;SDS011;26523;52.504;13.498;2023-04-24T12:15:19;4.78;;;1.25;;
40807;SDS011;26523;52.504;13.498;2023-04-24T12:17:45;2.20;;;0.80;;
40807;SDS011;26523;52.504;13.498;2023-04-24T12:20:11;1.27;;;0.90;;
40807;SDS011;26523;52.504;13.498;2023-04-24T12:25:13;4.75;;;0.95;;
40807;SDS011;26523;52.504;13.498;2023-04-24T12:27:41;1.65;;;0.70;;
40807;SDS011;26523;52.504;13.498;2023-04-24T12:30:15;2.10;;;0.60;;
40807;SDS011;26523;52.504;13.498;2023-04-24T12:32:42;1.45;;;0.82;;
40807;SDS011;26523;52.504;13.498;2023-04-24T12:35:21;4.13;;;0.77;;
40807;SDS011;26523;52.504;13.498;2023-04-24T12:40:16;1.75;;;0.88;;
40807;SDS011;26523;52.504;13.498;2023-04-24T12:42:44;6.72;;;0.70;;
40807;SDS011;26523;52.504;13.498;2023-04-24T12:45:14;2.35;;;0.50;;
40807;SDS011;26523;52.504;13.498;2023-04-24T12:47:42;0.75;;;0.50;;
40807;SDS011;26523;52.504;13.498;2023-04-24T12:50:10;0.95;;;0.40;;
40807;SDS011;26523;52.504;13.498;2023-04-24T12:52:37;0.82;;;0.60;;
40807;SDS011;26523;52.504;13.498;2023-04-24T12:55:04;0.95;;;0.55;;
40807;SDS011;26523;52.504;13.498;2023-04-24T12:57:33;2.05;;;0.50;;
40807;SDS011;26523;52.504;13.498;2023-04-24T13:00:00;3.78;;;0.60;;
40807;SDS011;26523;52.504;13.498;2023-04-24T13:02:27;0.85;;;0.45;;
40807;SDS011;26523;52.504;13.498;2023-04-24T13:04:54;3.10;;;0.60;;
40807;SDS011;26523;52.504;13.498;2023-04-24T13:07:20;1.48;;;0.55;;
40807;SDS011;26523;52.504;13.498;2023-04-24T13:09:47;1.02;;;0.60;;
40807;SDS011;26523;52.504;13.498;2023-04-24T13:12:14;2.88;;;0.82;;
40807;SDS011;26523;52.504;13.498;2023-04-24T13:14:40;2.33;;;0.50;;
40807;SDS011;26523;52.504;13.498;2023-04-24T13:17:06;3.65;;;0.50;;
40807;SDS011;26523;52.504;13.498;2023-04-24T13:19:39;1.38;;;0.40;;
40807;SDS011;26523;52.504;13.498;2023-04-24T13:22:05;1.13;;;0.60;;
40807;SDS011;26523;52.504;13.498;2023-04-24T13:24:32;1.25;;;0.68;;
40807;SDS011;26523;52.504;13.498;2023-04-24T13:26:58;1.25;;;0.47;;
40807;SDS011;26523;52.504;13.498;2023-04-24T13:29:25;2.95;;;0.60;;
40807;SDS011;26523;52.504;13.498;2023-04-24T13:31:51;3.97;;;0.93;;
40807;SDS011;26523;52.504;13.498;2023-04-24T13:34:19;2.00;;;0.40;;
40807;SDS011;26523;52.504;13.498;2023-04-24T13:36:45;1.33;;;0.65;;
40807;SDS011;26523;52.504;13.498;2023-04-24T13:39:11;4.50;;;0.68;;
40807;SDS011;26523;52.504;13.498;2023-04-24T13:41:38;2.53;;;0.60;;
40807;SDS011;26523;52.504;13.498;2023-04-24T13:44:05;1.48;;;0.73;;
40807;SDS011;26523;52.504;13.498;2023-04-24T13:46:31;1.70;;;0.50;;
40807;SDS011;26523;52.504;13.498;2023-04-24T13:48:57;1.05;;;0.60;;
40807;SDS011;26523;52.504;13.498;2023-04-24T13:51:24;2.72;;;0.60;;
40807;SDS011;26523;52.504;13.498;2023-04-24T13:53:52;0.98;;;0.57;;
40807;SDS011;26523;52.504;13.498;2023-04-24T13:56:18;3.88;;;0.50;;
40807;SDS011;26523;52.504;13.498;2023-04-24T13:58:45;1.65;;;0.50;;
40807;SDS011;26523;52.504;13.498;2023-04-24T14:01:11;2.03;;;0.60;;
40807;SDS011;26523;52.504;13.498;2023-04-24T14:03:38;1.55;;;0.63;;
40807;SDS011;26523;52.504;13.498;2023-04-24T14:06:04;0.38;;;0.30;;
40807;SDS011;26523;52.504;13.498;2023-04-24T14:08:31;2.17;;;0.77;;
40807;SDS011;26523;52.504;13.498;2023-04-24T14:10:57;1.50;;;0.68;;
40807;SDS011;26523;52.504;13.498;2023-04-24T14:13:22;1.38;;;0.73;;
40807;SDS011;26523;52.504;13.498;2023-04-24T14:15:48;2.58;;;0.60;;
40807;SDS011;26523;52.504;13.498;2023-04-24T14:18:14;6.47;;;0.77;;
40807;SDS011;26523;52.504;13.498;2023-04-24T14:20:40;2.78;;;0.60;;
40807;SDS011;26523;52.504;13.498;2023-04-24T14:23:06;4.80;;;0.95;;
40807;SDS011;26523;52.504;13.498;2023-04-24T14:25:31;1.15;;;0.60;;
40807;SDS011;26523;52.504;13.498;2023-04-24T14:27:57;1.27;;;0.57;;
40807;SDS011;26523;52.504;13.498;2023-04-24T14:30:23;1.63;;;0.77;;
40807;SDS011;26523;52.504;13.498;2023-04-24T14:32:49;1.70;;;0.60;;
40807;SDS011;26523;52.504;13.498;2023-04-24T14:35:14;0.80;;;0.50;;
40807;SDS011;26523;52.504;13.498;2023-04-24T14:37:40;1.90;;;1.08;;
40807;SDS011;26523;52.504;13.498;2023-04-24T14:40:07;1.17;;;0.85;;
40807;SDS011;26523;52.504;13.498;2023-04-24T14:42:34;2.80;;;0.60;;
40807;SDS011;26523;52.504;13.498;2023-04-24T14:45:00;1.50;;;1.05;;
40807;SDS011;26523;52.504;13.498;2023-04-24T14:47:26;1.73;;;0.60;;
40807;SDS011;26523;52.504;13.498;2023-04-24T14:49:52;1.85;;;0.80;;
40807;SDS011;26523;52.504;13.498;2023-04-24T14:52:18;2.80;;;0.63;;
40807;SDS011;26523;52.504;13.498;2023-04-24T14:54:45;3.28;;;0.80;;
40807;SDS011;26523;52.504;13.498;2023-04-24T14:57:10;3.75;;;0.50;;
40807;SDS011;26523;52.504;13.498;2023-04-24T14:59:36;0.95;;;0.60;;
40807;SDS011;26523;52.504;13.498;2023-04-24T15:02:02;3.90;;;0.60;;